createdAt,value
2022-08-06T00:00:07.752Z,87.10
2022-08-06T00:00:56.704Z,87.20
2022-08-06T00:01:55.816Z,87.57
2022-08-06T00:02:55.723Z,87.41
2022-08-06T00:03:55.713Z,87.61
2022-08-06T00:04:55.684Z,87.41
2022-08-06T00:05:55.681Z,87.61
2022-08-06T00:06:55.707Z,87.71
2022-08-06T00:07:55.658Z,87.77
2022-08-06T00:08:55.742Z,87.16
2022-08-06T00:09:59.879Z,87.20
2022-08-06T00:10:55.743Z,87.51
2022-08-06T00:11:59.258Z,87.71
2022-08-06T00:12:55.580Z,87.61
2022-08-06T00:13:55.617Z,87.61
2022-08-06T00:14:55.582Z,87.82
2022-08-06T00:16:08.864Z,87.55
2022-08-06T00:16:56.575Z,87.76
2022-08-06T00:17:55.629Z,88.06
2022-08-06T00:18:55.522Z,88.06
2022-08-06T00:19:57.800Z,88.47
2022-08-06T00:20:55.533Z,88.98
2022-08-06T00:21:55.543Z,88.78
2022-08-06T00:22:55.637Z,88.78
2022-08-06T00:23:55.731Z,88.53
2022-08-06T00:24:55.473Z,88.12
2022-08-06T00:25:55.460Z,87.61
2022-08-06T00:27:05.878Z,87.57
2022-08-06T00:27:57.451Z,87.06
2022-08-06T00:28:55.450Z,86.86
2022-08-06T00:29:56.197Z,86.04
2022-08-06T00:30:55.407Z,85.80
2022-08-06T00:31:55.395Z,85.28
2022-08-06T00:32:55.421Z,85.60
2022-08-06T00:33:57.238Z,85.28
2022-08-06T00:34:55.366Z,84.88
2022-08-06T00:35:55.363Z,84.27
2022-08-06T00:36:55.387Z,84.67
2022-08-06T00:37:57.971Z,84.12
2022-08-06T00:38:55.422Z,83.86
2022-08-06T00:39:55.318Z,83.45
2022-08-06T00:40:58.902Z,83.72
2022-08-06T00:41:55.280Z,83.42
2022-08-06T00:42:55.302Z,83.65
2022-08-06T00:43:55.272Z,83.31
2022-08-06T00:44:55.276Z,83.76
2022-08-06T00:45:55.591Z,83.42
2022-08-06T00:46:55.254Z,83.04
2022-08-06T00:48:03.026Z,82.94
2022-08-06T00:48:56.357Z,83.25
2022-08-06T00:49:55.224Z,83.35
2022-08-06T00:50:55.232Z,83.35
2022-08-06T00:51:55.225Z,83.15
2022-08-06T00:52:56.174Z,83.25
2022-08-06T00:53:58.163Z,83.09
2022-08-06T00:54:55.198Z,82.98
2022-08-06T00:56:01.424Z,83.39
2022-08-06T00:56:56.190Z,83.35
2022-08-06T00:57:55.193Z,83.25
2022-08-06T00:59:03.137Z,83.25
2022-08-06T00:59:55.162Z,82.94
2022-08-06T01:00:55.253Z,82.84
2022-08-06T01:01:55.137Z,82.88
2022-08-06T01:02:55.124Z,83.04
2022-08-06T01:03:55.072Z,82.88
2022-08-06T01:05:06.676Z,82.78
2022-08-06T01:06:51.814Z,82.57
2022-08-06T01:06:58.438Z,82.68
2022-08-06T01:07:56.052Z,82.68
2022-08-06T01:08:54.998Z,82.88
2022-08-06T01:09:58.415Z,82.98
2022-08-06T01:10:55.084Z,82.68
2022-08-06T01:12:00.008Z,82.47
2022-08-06T01:12:56.040Z,82.78
2022-08-06T01:14:02.997Z,81.96
2022-08-06T01:15:02.183Z,82.31
2022-08-06T01:16:09.059Z,83.02
2022-08-06T01:16:55.945Z,82.92
2022-08-06T01:17:58.000Z,83.47
2022-08-06T01:18:58.907Z,84.74
2022-08-06T01:21:57.218Z,86.00
2022-08-06T01:22:01.500Z,85.75
2022-08-06T01:22:28.305Z,86.55
2022-08-06T01:22:55.968Z,87.30
2022-08-06T01:23:55.265Z,87.82
2022-08-06T01:24:54.859Z,87.92
2022-08-06T01:25:54.846Z,87.92
2022-08-06T01:26:55.463Z,88.37
2022-08-06T01:27:54.864Z,88.57
2022-08-06T01:28:54.850Z,88.53
2022-08-06T01:29:54.830Z,88.57
2022-08-06T01:30:54.818Z,88.94
2022-08-06T01:31:54.760Z,88.84
2022-08-06T01:32:54.805Z,88.53
2022-08-06T01:33:54.831Z,87.71
2022-08-06T01:34:54.743Z,88.02
2022-08-06T01:35:55.558Z,88.53
2022-08-06T01:36:54.772Z,88.06
2022-08-06T01:37:54.812Z,88.02
2022-08-06T01:38:59.479Z,88.23
2022-08-06T01:40:02.870Z,88.33
2022-08-06T01:40:55.706Z,88.53
2022-08-06T01:41:59.076Z,88.64
2022-08-06T01:42:54.781Z,88.47
2022-08-06T01:44:05.538Z,88.88
2022-08-06T01:44:55.667Z,88.68
2022-08-06T01:45:55.829Z,88.88
2022-08-06T01:46:54.662Z,88.98
2022-08-06T01:47:55.138Z,88.98
2022-08-06T01:48:55.628Z,89.15
2022-08-06T01:50:01.451Z,89.09
2022-08-06T01:50:55.598Z,89.09
2022-08-06T01:52:14.400Z,88.98
2022-08-06T01:52:59.642Z,89.39
2022-08-06T01:54:07.316Z,88.98
2022-08-06T01:54:55.546Z,89.18
2022-08-06T01:55:58.540Z,89.29
2022-08-06T01:56:57.601Z,89.18
2022-08-06T01:58:07.847Z,89.18
2022-08-06T01:58:55.545Z,89.29
2022-08-06T01:59:56.332Z,89.25
2022-08-06T02:00:54.526Z,89.04
2022-08-06T02:01:55.021Z,88.94
2022-08-06T02:02:55.593Z,88.94
2022-08-06T02:03:59.358Z,89.04
2022-08-06T02:04:55.475Z,89.11
2022-08-06T02:05:54.493Z,89.15
2022-08-06T02:06:54.458Z,88.74
2022-08-06T02:08:38.766Z,88.74
2022-08-06T02:08:55.641Z,88.74
2022-08-06T02:09:54.442Z,89.04
2022-08-06T02:10:54.451Z,88.43
2022-08-06T02:12:03.521Z,88.53
2022-08-06T02:12:55.433Z,88.88
2022-08-06T02:13:55.391Z,88.57
2022-08-06T02:14:54.387Z,88.88
2022-08-06T02:15:58.206Z,89.43
2022-08-06T02:16:56.088Z,89.43
2022-08-06T02:18:06.129Z,89.94
2022-08-06T02:18:55.316Z,89.84
2022-08-06T02:20:05.087Z,90.15
2022-08-06T02:20:55.281Z,90.05
2022-08-06T02:21:57.628Z,90.05
2022-08-06T02:22:54.332Z,90.36
2022-08-06T02:23:54.309Z,90.66
2022-08-06T02:24:54.254Z,90.36
2022-08-06T02:25:54.286Z,90.77
2022-08-06T02:26:54.245Z,90.86
2022-08-06T02:27:57.867Z,90.82
2022-08-06T02:28:55.301Z,90.62
2022-08-06T02:30:06.245Z,90.72
2022-08-06T02:30:55.223Z,90.52
2022-08-06T02:31:54.182Z,90.31
2022-08-06T02:45:18.912Z,92.34
2022-08-06T02:46:18.892Z,92.03
2022-08-06T02:47:18.902Z,91.42
2022-08-06T02:48:22.044Z,91.27
2022-08-06T02:49:25.264Z,91.38
2022-08-06T02:50:19.953Z,90.72
2022-08-06T02:51:29.648Z,89.80
2022-08-06T02:52:32.728Z,89.80
2022-08-06T02:53:24.988Z,89.29
2022-08-06T02:54:19.865Z,88.98
2022-08-06T02:55:20.809Z,88.53
2022-08-06T02:56:19.948Z,88.26
2022-08-06T02:57:19.934Z,88.06
2022-08-06T02:58:19.930Z,87.82
2022-08-06T02:59:20.903Z,87.45
2022-08-06T03:00:19.930Z,87.41
2022-08-06T03:01:22.250Z,87.41
2022-08-06T03:02:20.542Z,87.45
2022-08-06T03:03:21.397Z,87.20
2022-08-06T03:04:20.846Z,87.41
2022-08-06T03:05:54.486Z,87.41
2022-08-06T03:06:20.829Z,87.30
2022-08-06T03:07:27.211Z,87.00
2022-08-06T03:08:20.843Z,87.35
2022-08-06T03:09:19.809Z,87.00
2022-08-06T03:10:19.813Z,86.73
2022-08-06T03:11:20.797Z,86.83
2022-08-06T03:12:39.683Z,87.04
2022-08-06T03:13:20.782Z,86.73
2022-08-06T03:14:53.893Z,87.04
2022-08-06T03:15:57.738Z,86.94
2022-08-06T03:16:23.014Z,87.35
2022-08-06T03:17:19.731Z,87.38
2022-08-06T03:18:23.511Z,87.84
2022-08-06T03:19:54.538Z,88.35
2022-08-06T03:20:25.214Z,88.65
2022-08-06T03:21:19.675Z,88.90
2022-08-06T03:22:35.984Z,89.31
2022-08-06T03:23:20.683Z,89.62
2022-08-06T03:24:19.636Z,89.76
2022-08-06T03:25:23.921Z,90.37
2022-08-06T03:26:19.630Z,90.42
2022-08-06T03:27:20.809Z,91.14
2022-08-06T03:28:20.466Z,91.28
2022-08-06T03:29:19.615Z,91.08
2022-08-06T03:30:32.265Z,91.35
2022-08-06T03:31:20.590Z,91.55
2022-08-06T03:32:51.478Z,91.65
2022-08-06T03:33:28.728Z,91.55
2022-08-06T03:34:21.566Z,91.14
2022-08-06T03:35:42.141Z,91.03
2022-08-06T03:36:20.539Z,91.35
2022-08-06T03:37:19.524Z,90.93
2022-08-06T03:38:19.713Z,91.35
2022-08-06T03:39:22.035Z,91.44
2022-08-06T03:40:19.673Z,91.96
2022-08-06T03:41:19.465Z,91.96
2022-08-06T03:42:19.489Z,92.57
2022-08-06T03:43:28.106Z,92.16
2022-08-06T03:44:20.473Z,92.27
2022-08-06T03:45:35.634Z,92.27
2022-08-06T03:46:20.428Z,92.27
2022-08-06T03:47:19.422Z,92.31
2022-08-06T03:48:32.740Z,92.47
2022-08-06T03:49:26.136Z,92.47
2022-08-06T03:50:20.408Z,92.36
2022-08-06T03:51:50.783Z,92.57
2022-08-06T03:52:22.748Z,92.74
2022-08-06T03:53:19.351Z,92.36
2022-08-06T03:54:27.910Z,92.43
2022-08-06T03:55:22.784Z,92.22
2022-08-06T03:56:19.344Z,92.22
2022-08-06T03:57:22.180Z,92.32
2022-08-06T03:58:20.999Z,92.83
2022-08-06T03:59:20.325Z,92.12
2022-08-06T04:00:22.464Z,92.27
2022-08-06T04:01:20.179Z,92.57
2022-08-06T04:02:24.493Z,92.78
2022-08-06T04:03:20.264Z,93.19
2022-08-06T04:04:27.334Z,92.98
2022-08-06T04:05:22.526Z,93.04
2022-08-06T04:06:20.697Z,92.94
2022-08-06T04:07:19.233Z,92.83
2022-08-06T04:08:19.245Z,92.79
2022-08-06T04:09:57.427Z,92.83
2022-08-06T04:10:22.772Z,92.28
2022-08-06T04:12:13.050Z,92.79
2022-08-06T04:13:03.895Z,92.38
2022-08-06T04:14:06.299Z,92.59
2022-08-06T04:14:20.213Z,92.38
2022-08-06T04:15:20.258Z,91.52
2022-08-06T04:16:33.139Z,90.91
2022-08-06T04:17:20.106Z,91.52
2022-08-06T04:18:19.121Z,90.36
2022-08-06T04:19:19.089Z,89.43
2022-08-06T04:20:40.989Z,89.18
2022-08-06T04:22:56.756Z,89.18
2022-08-06T04:23:09.218Z,88.98
2022-08-06T04:23:34.938Z,88.43
2022-08-06T04:24:20.020Z,88.23
2022-08-06T04:25:20.038Z,87.41
2022-08-06T04:26:19.024Z,87.30
2022-08-06T04:27:19.163Z,87.10
2022-08-06T04:28:19.032Z,86.90
2022-08-06T04:29:18.999Z,86.55
2022-08-06T04:30:18.973Z,86.24
2022-08-06T04:31:22.995Z,86.44
2022-08-06T04:32:29.589Z,86.44
2022-08-06T04:33:20.031Z,86.35
2022-08-06T04:34:18.966Z,85.83
2022-08-06T04:36:07.148Z,85.32
2022-08-06T04:36:25.386Z,84.88
2022-08-06T04:37:18.927Z,85.69
2022-08-06T04:38:27.744Z,85.69
2022-08-06T04:39:20.806Z,85.79
2022-08-06T04:40:27.520Z,85.69
2022-08-06T04:41:19.975Z,85.59
2022-08-06T04:42:19.138Z,85.69
2022-08-06T04:43:18.880Z,85.18
2022-08-06T04:44:18.853Z,84.94
2022-08-06T04:46:14.612Z,84.63
2022-08-06T04:46:20.550Z,84.94
2022-08-06T04:47:20.187Z,84.42
2022-08-06T04:48:21.005Z,84.22
2022-08-06T04:49:18.779Z,83.98
2022-08-06T04:50:23.907Z,83.61
2022-08-06T04:52:34.292Z,84.74
2022-08-06T04:52:45.914Z,84.63
2022-08-06T04:53:30.298Z,84.69
2022-08-06T04:54:22.122Z,83.67
2022-08-06T04:55:24.976Z,83.57
2022-08-06T04:56:19.735Z,83.57
2022-08-06T04:57:22.273Z,83.67
2022-08-06T04:58:20.808Z,83.37
2022-08-06T04:59:18.943Z,83.53
2022-08-06T05:00:34.044Z,83.37
2022-08-06T05:01:20.045Z,83.43
2022-08-06T05:02:19.012Z,83.18
2022-08-06T05:03:18.680Z,82.98
2022-08-06T05:04:22.947Z,82.78
2022-08-06T05:05:21.232Z,83.09
2022-08-06T05:06:18.630Z,82.98
2022-08-06T05:07:18.642Z,82.68
2022-08-06T05:08:18.696Z,82.68
2022-08-06T05:09:22.610Z,81.52
2022-08-06T05:10:18.632Z,81.76
2022-08-06T05:11:18.644Z,81.93
2022-08-06T05:12:19.576Z,82.03
2022-08-06T05:13:35.409Z,81.93
2022-08-06T05:14:19.546Z,81.82
2022-08-06T05:15:21.581Z,81.93
2022-08-06T05:16:19.546Z,81.88
2022-08-06T05:17:18.576Z,81.88
2022-08-06T05:19:19.487Z,81.38
2022-08-06T05:19:23.189Z,81.48
2022-08-06T05:20:27.573Z,80.77
2022-08-06T05:21:22.009Z,79.44
2022-08-06T05:22:42.477Z,79.75
2022-08-06T05:23:20.860Z,79.44
2022-08-06T05:24:18.441Z,79.95
2022-08-06T05:25:22.636Z,80.36
2022-08-06T05:26:24.967Z,81.68
2022-08-06T05:27:19.395Z,81.88
2022-08-06T05:28:18.542Z,81.58
2022-08-06T05:29:18.396Z,82.64
2022-08-06T05:30:18.390Z,83.15
2022-08-06T05:31:18.386Z,83.04
2022-08-06T05:32:19.404Z,83.51
2022-08-06T05:33:19.393Z,83.82
2022-08-06T05:34:19.692Z,84.43
2022-08-06T05:35:18.450Z,83.31
2022-08-06T05:36:19.522Z,83.01
2022-08-06T05:37:18.287Z,83.11
2022-08-06T05:38:31.319Z,83.07
2022-08-06T05:39:56.728Z,81.68
2022-08-06T05:40:20.312Z,80.42
2022-08-06T05:41:19.385Z,79.91
2022-08-06T05:42:24.625Z,79.41
2022-08-06T05:43:19.287Z,80.69
2022-08-06T05:44:18.216Z,80.59
2022-08-06T05:45:18.221Z,79.47
2022-08-06T05:46:21.363Z,79.47
2022-08-06T05:47:19.219Z,79.47
2022-08-06T05:48:18.265Z,79.06
2022-08-06T05:49:57.439Z,79.16
2022-08-06T05:50:19.180Z,78.86
2022-08-06T05:51:19.150Z,79.33
2022-08-06T05:52:19.297Z,78.92
2022-08-06T05:53:18.202Z,78.72
2022-08-06T05:54:19.136Z,78.72
2022-08-06T05:55:18.147Z,78.55
2022-08-06T05:56:38.598Z,78.92
2022-08-06T05:57:19.105Z,79.43
2022-08-06T05:58:19.157Z,79.39
2022-08-06T05:59:37.696Z,79.50
2022-08-06T06:00:31.516Z,80.17
2022-08-06T06:01:19.135Z,78.24
2022-08-06T06:02:18.965Z,78.64
2022-08-06T06:03:28.452Z,78.24
2022-08-06T06:04:19.147Z,78.04
2022-08-06T06:06:03.879Z,78.41
2022-08-06T06:06:19.054Z,78.95
2022-08-06T06:08:08.498Z,78.71
2022-08-06T06:08:29.358Z,78.10
2022-08-06T06:09:18.969Z,78.61
2022-08-06T06:10:18.980Z,77.59
2022-08-06T06:11:18.015Z,77.56
2022-08-06T06:12:18.098Z,78.57
2022-08-06T06:13:25.230Z,78.88
2022-08-06T06:14:18.950Z,78.37
2022-08-06T06:16:01.613Z,77.97
2022-08-06T06:16:22.324Z,77.66
2022-08-06T06:17:17.877Z,76.91
2022-08-06T06:18:33.322Z,77.22
2022-08-06T06:19:19.263Z,77.15
2022-08-06T06:20:17.861Z,77.45
2022-08-06T06:26:54.021Z,78.37
2022-08-06T06:27:54.039Z,77.45
2022-08-06T06:28:54.042Z,77.22
2022-08-06T06:30:05.330Z,77.12
2022-08-06T06:31:02.364Z,76.71
2022-08-06T06:32:04.109Z,77.12
2022-08-06T06:32:56.382Z,76.57
2022-08-06T06:33:55.103Z,76.57
2022-08-06T06:34:55.080Z,75.32
2022-08-06T06:35:55.643Z,73.86
2022-08-06T06:36:58.150Z,72.85
2022-08-06T06:37:56.066Z,73.36
2022-08-06T06:38:56.663Z,73.56
2022-08-06T06:39:58.977Z,74.77
2022-08-06T06:41:02.715Z,72.38
2022-08-06T06:41:56.053Z,73.46
2022-08-06T06:42:55.018Z,73.56
2022-08-06T06:43:55.005Z,73.22
2022-08-06T06:45:04.650Z,73.49
2022-08-06T06:46:20.576Z,72.08
2022-08-06T06:46:56.284Z,71.09
2022-08-06T06:47:59.260Z,71.77
2022-08-06T06:48:55.024Z,71.64
2022-08-06T06:50:02.829Z,71.47
2022-08-06T06:50:55.977Z,70.76
2022-08-06T06:51:58.243Z,70.73
2022-08-06T06:52:55.909Z,70.62
2022-08-06T06:54:07.319Z,70.69
2022-08-06T06:55:00.221Z,69.78
2022-08-06T06:55:59.743Z,69.07
2022-08-06T06:56:55.889Z,69.07
2022-08-06T06:57:54.907Z,67.43
2022-08-06T06:58:54.860Z,67.02
2022-08-06T07:00:01.292Z,67.25
2022-08-06T07:01:28.533Z,67.46
2022-08-06T07:01:56.132Z,68.67
2022-08-06T07:03:42.874Z,68.87
2022-08-06T07:03:55.994Z,68.37
2022-08-06T07:04:55.986Z,68.97
2022-08-06T07:06:06.283Z,69.58
2022-08-06T07:06:57.853Z,67.55
2022-08-06T07:07:56.083Z,67.76
2022-08-06T07:08:54.693Z,69.07
2022-08-06T07:10:00.989Z,68.94
2022-08-06T07:10:55.663Z,70.05
2022-08-06T07:12:03.627Z,69.75
2022-08-06T07:12:55.719Z,68.54
2022-08-06T07:13:58.921Z,68.00
2022-08-06T07:14:58.713Z,68.80
2022-08-06T07:15:56.736Z,69.31
2022-08-06T07:16:54.678Z,67.69
2022-08-06T07:18:09.548Z,69.31
2022-08-06T07:18:55.661Z,68.67
2022-08-06T07:19:54.624Z,69.08
2022-08-06T07:20:54.613Z,67.16
2022-08-06T07:21:54.623Z,67.86
2022-08-06T07:24:06.414Z,67.16
2022-08-06T07:24:06.782Z,67.76
2022-08-06T07:24:57.640Z,68.67
2022-08-06T07:25:55.488Z,67.56
2022-08-06T07:26:55.542Z,68.98
2022-08-06T07:27:55.355Z,67.76
2022-08-06T07:29:03.150Z,67.56
2022-08-06T07:30:00.107Z,67.97
2022-08-06T07:30:54.531Z,66.05
2022-08-06T07:31:54.582Z,66.55
2022-08-06T07:32:54.543Z,66.05
2022-08-06T07:33:59.852Z,66.89
2022-08-06T07:34:55.468Z,65.88
2022-08-06T07:35:54.411Z,66.28
2022-08-06T07:36:57.102Z,66.99
2022-08-06T07:37:54.457Z,66.78
2022-08-06T07:38:54.450Z,66.78
2022-08-06T07:39:54.407Z,66.89
2022-08-06T07:40:54.384Z,65.78
2022-08-06T07:42:11.101Z,65.24
2022-08-06T07:42:55.333Z,66.05
2022-08-06T07:43:55.357Z,65.57
2022-08-06T07:44:56.870Z,65.98
2022-08-06T07:45:54.623Z,67.19
2022-08-06T07:46:54.349Z,67.22
2022-08-06T07:47:56.011Z,66.18
2022-08-06T07:48:54.292Z,65.50
2022-08-06T07:49:59.627Z,65.37
2022-08-06T07:50:55.266Z,66.21
2022-08-06T07:51:54.245Z,65.53
2022-08-06T07:52:54.588Z,68.03
2022-08-06T07:53:58.735Z,67.66
2022-08-06T07:54:55.238Z,67.32
2022-08-06T07:55:54.278Z,67.02
2022-08-06T07:57:00.443Z,66.18
2022-08-06T07:57:58.694Z,67.19
2022-08-06T07:58:54.270Z,66.28
2022-08-06T07:59:55.807Z,64.56
2022-08-06T08:00:55.179Z,61.33
2022-08-06T08:01:54.251Z,62.04
2022-08-06T08:02:54.155Z,61.83
2022-08-06T08:03:58.194Z,63.35
2022-08-06T08:04:55.169Z,63.05
2022-08-06T08:06:00.577Z,62.85
2022-08-06T08:06:55.238Z,62.92
2022-08-06T08:07:57.216Z,64.23
2022-08-06T08:08:54.178Z,63.62
2022-08-06T08:10:01.400Z,63.15
2022-08-06T08:10:56.260Z,61.83
2022-08-06T08:12:17.131Z,63.35
2022-08-06T08:12:55.222Z,63.85
2022-08-06T08:13:56.583Z,63.96
2022-08-06T08:14:54.331Z,64.26
2022-08-06T08:15:54.224Z,64.06
2022-08-06T08:16:54.018Z,64.26
2022-08-06T08:17:57.499Z,64.87
2022-08-06T08:18:54.106Z,63.35
2022-08-06T08:19:54.081Z,63.68
2022-08-06T08:20:54.090Z,63.89
2022-08-06T08:21:53.938Z,64.56
2022-08-06T08:22:53.922Z,64.36
2022-08-06T08:23:55.593Z,64.43
2022-08-06T08:24:54.925Z,63.73
2022-08-06T08:25:53.932Z,62.59
2022-08-06T08:27:16.906Z,61.17
2022-08-06T08:27:55.910Z,59.76
2022-08-06T08:28:53.920Z,59.05
2022-08-06T08:29:57.101Z,60.57
2022-08-06T08:30:54.858Z,60.44
2022-08-06T08:31:59.445Z,58.72
2022-08-06T08:32:54.824Z,59.80
2022-08-06T08:33:54.691Z,59.77
2022-08-06T08:34:56.184Z,57.73
2022-08-06T08:36:00.654Z,57.73
2022-08-06T08:36:54.865Z,57.53
2022-08-06T08:37:53.829Z,56.49
2022-08-06T08:38:53.766Z,56.70
2022-08-06T08:39:55.643Z,56.70
2022-08-06T08:40:53.754Z,57.30
2022-08-06T08:41:53.759Z,56.29
2022-08-06T08:42:54.306Z,56.90
2022-08-06T08:43:59.848Z,57.70
2022-08-06T08:44:55.314Z,57.07
2022-08-06T08:45:55.610Z,58.05
2022-08-06T08:46:58.120Z,55.16
2022-08-06T08:47:57.795Z,55.83
2022-08-06T08:48:53.708Z,55.23
2022-08-06T08:49:53.654Z,55.54
2022-08-06T08:50:53.649Z,54.83
2022-08-06T08:51:53.678Z,54.23
2022-08-06T08:54:38.541Z,53.45
2022-08-06T08:57:09.255Z,54.46
2022-08-06T08:57:09.255Z,52.94
2022-08-06T08:59:00.834Z,54.55
2022-08-06T08:59:01.687Z,53.67
2022-08-06T08:59:59.201Z,55.46
2022-08-06T09:00:40.658Z,54.66
2022-08-06T09:01:53.509Z,54.15
2022-08-06T09:02:49.744Z,55.76
2022-08-06T09:03:46.977Z,55.87
2022-08-06T09:04:40.569Z,55.87
2022-08-06T09:05:39.519Z,56.24
2022-08-06T09:06:40.517Z,55.54
2022-08-06T09:07:39.846Z,54.20
2022-08-06T09:09:01.457Z,54.48
2022-08-06T09:09:47.224Z,52.87
2022-08-06T09:10:40.457Z,53.05
2022-08-06T09:12:04.866Z,50.73
2022-08-06T09:12:45.479Z,51.04
2022-08-06T09:13:51.174Z,52.04
2022-08-06T09:14:40.464Z,52.94
2022-08-06T09:15:40.470Z,52.64
2022-08-06T09:16:39.423Z,52.44
2022-08-06T09:18:11.436Z,52.64
2022-08-06T09:18:40.446Z,52.44
2022-08-06T09:19:41.630Z,55.35
2022-08-06T09:20:41.417Z,54.15
2022-08-06T09:21:40.433Z,54.45
2022-08-06T09:22:39.418Z,54.22
2022-08-06T09:23:49.415Z,54.02
2022-08-06T09:24:40.427Z,53.22
2022-08-06T09:25:49.789Z,51.79
2022-08-06T09:26:54.790Z,51.89
2022-08-06T09:27:46.984Z,50.86
2022-08-06T09:28:40.334Z,50.86
2022-08-06T09:29:39.304Z,51.26
2022-08-06T09:30:40.334Z,51.19
2022-08-06T09:31:44.497Z,50.71
2022-08-06T09:32:55.095Z,51.31
2022-08-06T09:34:30.356Z,50.41
2022-08-06T09:38:28.026Z,49.30
2022-08-06T09:39:28.048Z,50.09
2022-08-06T09:40:28.302Z,48.98
2022-08-06T09:41:27.961Z,48.38
2022-08-06T09:42:28.106Z,47.88
2022-08-06T09:44:01.799Z,47.97
2022-08-06T09:44:37.683Z,48.40
2022-08-06T09:45:42.866Z,49.51
2022-08-06T09:46:30.094Z,50.29
2022-08-06T09:47:33.261Z,51.06
2022-08-06T09:48:28.989Z,49.66
2022-08-06T09:49:48.778Z,49.33
2022-08-06T09:50:29.967Z,48.53
2022-08-06T09:51:51.365Z,47.33
2022-08-06T09:52:29.956Z,47.41
2022-08-06T09:53:29.019Z,46.12
2022-08-06T09:54:30.102Z,47.33
2022-08-06T09:55:28.989Z,49.63
2022-08-06T09:56:28.897Z,49.43
2022-08-06T09:57:35.874Z,49.01
2022-08-06T09:58:29.870Z,49.41
2022-08-06T09:59:31.936Z,46.33
2022-08-06T10:00:29.222Z,46.12
2022-08-06T10:01:28.872Z,47.00
2022-08-06T10:02:32.550Z,48.91
2022-08-06T10:04:03.023Z,47.08
2022-08-06T10:04:36.258Z,47.26
2022-08-06T10:09:07.370Z,45.79
2022-08-06T10:10:09.511Z,44.29
2022-08-06T10:11:07.674Z,43.62
2022-08-06T10:12:07.383Z,44.51
2022-08-06T10:13:07.400Z,44.62
2022-08-06T10:14:07.317Z,45.14
2022-08-06T10:15:08.660Z,44.12
2022-08-06T10:16:07.356Z,44.96
2022-08-06T10:17:08.317Z,44.66
2022-08-06T10:18:16.381Z,44.06
2022-08-06T10:19:19.027Z,44.38
2022-08-06T10:20:10.255Z,45.02
2022-08-06T10:21:08.432Z,47.03
2022-08-06T10:22:08.386Z,46.73
2022-08-06T10:23:08.421Z,45.70
2022-08-06T10:24:08.374Z,47.11
2022-08-06T10:25:12.630Z,46.18
2022-08-06T10:26:08.367Z,46.68
2022-08-06T10:27:14.975Z,46.18
2022-08-06T10:28:09.334Z,45.08
2022-08-06T10:29:08.329Z,45.98
2022-08-06T10:30:08.458Z,45.66
2022-08-06T10:31:08.287Z,46.64
2022-08-06T10:32:11.631Z,45.86
2022-08-06T10:33:18.116Z,43.96
2022-08-06T10:34:09.276Z,44.26
2022-08-06T10:35:12.419Z,44.43
2022-08-06T10:36:09.266Z,42.13
2022-08-06T10:37:47.762Z,41.91
2022-08-06T10:38:14.749Z,39.91
2022-08-06T10:40:07.937Z,40.22
2022-08-06T10:40:11.259Z,41.43
2022-08-06T10:41:27.783Z,43.62
2022-08-06T10:42:15.152Z,44.39
2022-08-06T10:43:12.653Z,43.07
2022-08-06T10:44:08.211Z,43.55
2022-08-06T10:45:13.105Z,40.81
2022-08-06T10:46:11.620Z,40.83
2022-08-06T10:47:08.190Z,41.52
2022-08-06T10:48:56.709Z,41.33
2022-08-06T10:50:30.245Z,41.55
2022-08-06T10:50:31.994Z,41.85
2022-08-06T10:51:09.140Z,41.85
2022-08-06T10:52:08.242Z,42.65
2022-08-06T10:53:08.678Z,42.07
2022-08-06T10:54:19.232Z,42.38
2022-08-06T10:55:09.086Z,41.49
2022-08-06T10:56:08.802Z,42.19
2022-08-06T10:57:08.031Z,41.91
2022-08-06T10:58:08.010Z,42.61
2022-08-06T10:59:08.052Z,43.01
2022-08-06T11:00:08.015Z,42.11
2022-08-06T11:01:07.983Z,43.13
2022-08-06T11:02:08.029Z,43.12
2022-08-06T11:03:13.732Z,42.32
2022-08-06T11:04:14.127Z,42.99
2022-08-06T11:05:25.210Z,44.09
2022-08-06T11:06:09.871Z,42.47
2022-08-06T11:07:07.979Z,41.25
2022-08-06T11:08:10.933Z,40.45
2022-08-06T11:09:08.963Z,41.83
2022-08-06T11:10:08.028Z,40.44
2022-08-06T11:11:19.990Z,40.32
2022-08-06T11:12:14.888Z,38.32
2022-08-06T11:13:08.906Z,39.72
2022-08-06T11:14:14.764Z,40.00
2022-08-06T11:15:08.878Z,39.58
2022-08-06T11:16:07.886Z,41.58
2022-08-06T11:17:08.306Z,39.78
2022-08-06T11:18:07.836Z,39.26
2022-08-06T11:19:08.164Z,39.26
2022-08-06T11:20:14.058Z,37.95
2022-08-06T11:21:08.853Z,39.32
2022-08-06T11:22:11.487Z,38.53
2022-08-06T11:23:11.786Z,38.63
2022-08-06T11:24:08.936Z,37.05
2022-08-06T11:25:25.894Z,37.95
2022-08-06T11:26:09.432Z,39.34
2022-08-06T11:27:11.301Z,39.54
2022-08-06T11:28:08.323Z,38.56
2022-08-06T11:29:08.463Z,39.26
2022-08-06T11:30:07.741Z,39.66
2022-08-06T11:31:12.274Z,39.16
2022-08-06T11:32:08.757Z,40.10
2022-08-06T11:33:08.727Z,39.60
2022-08-06T11:34:07.893Z,39.80
2022-08-06T11:35:08.107Z,40.20
2022-08-06T11:36:09.779Z,39.92
2022-08-06T11:37:10.901Z,40.22
2022-08-06T11:38:25.162Z,39.30
2022-08-06T11:39:17.230Z,39.30
2022-08-06T11:40:15.787Z,38.10
2022-08-06T11:41:09.685Z,40.00
2022-08-06T11:42:07.918Z,39.50
2022-08-06T11:44:29.399Z,39.28
2022-08-06T11:46:20.219Z,37.35
2022-08-06T11:46:20.705Z,38.54
2022-08-06T11:48:26.938Z,38.53
2022-08-06T11:48:32.906Z,36.80
2022-08-06T11:49:28.286Z,39.07
2022-08-06T11:50:28.229Z,37.06
2022-08-06T11:51:28.313Z,35.57
2022-08-06T11:52:29.408Z,34.45
2022-08-06T11:53:29.727Z,39.44
2022-08-06T11:54:29.247Z,39.64
2022-08-06T11:55:28.272Z,37.71
2022-08-06T11:56:28.187Z,38.31
2022-08-06T11:57:41.998Z,37.99
2022-08-06T11:58:29.175Z,38.47
2022-08-06T11:59:28.286Z,37.36
2022-08-06T12:00:28.165Z,35.57
2022-08-06T12:01:33.413Z,36.25
2022-08-06T12:02:29.142Z,35.55
2022-08-06T12:04:56.749Z,34.78
2022-08-06T12:04:58.398Z,34.08
2022-08-06T12:06:00.396Z,33.39
2022-08-06T12:06:58.289Z,33.62
2022-08-06T12:07:58.346Z,33.92
2022-08-06T12:08:58.335Z,34.92
2022-08-06T12:09:58.304Z,36.24
2022-08-06T12:10:58.273Z,38.05
2022-08-06T12:11:58.270Z,38.35
2022-08-06T12:12:58.270Z,38.86
2022-08-06T12:14:33.710Z,39.18
2022-08-06T12:15:01.168Z,39.18
2022-08-06T12:16:12.042Z,40.08
2022-08-06T12:17:02.601Z,38.68
2022-08-06T12:18:19.380Z,39.00
2022-08-06T12:18:59.191Z,39.12
2022-08-06T12:20:02.474Z,39.43
2022-08-06T12:20:58.162Z,38.94
2022-08-06T12:21:58.158Z,40.22
2022-08-06T12:22:58.161Z,41.91
2022-08-06T12:23:58.149Z,40.59
2022-08-06T12:25:11.352Z,39.18
2022-08-06T12:26:00.161Z,38.96
2022-08-06T12:26:58.197Z,38.35
2022-08-06T12:27:58.127Z,39.64
2022-08-06T12:28:58.133Z,38.65
2022-08-06T12:29:58.095Z,39.23
2022-08-06T12:30:58.096Z,38.11
2022-08-06T12:31:58.081Z,38.31
2022-08-06T12:32:58.042Z,36.21
2022-08-06T12:33:58.064Z,37.08
2022-08-06T12:34:58.535Z,35.47
2022-08-06T12:35:58.046Z,35.55
2022-08-06T12:36:57.994Z,34.45
2022-08-06T12:37:59.037Z,35.34
2022-08-06T12:38:58.694Z,35.14
2022-08-06T12:39:58.013Z,35.32
2022-08-06T12:40:58.000Z,34.92
2022-08-06T12:41:57.974Z,34.03
2022-08-06T12:43:02.970Z,35.04
2022-08-06T12:43:58.968Z,36.05
2022-08-06T12:44:58.872Z,35.27
2022-08-06T12:46:06.340Z,35.21
2022-08-06T12:46:58.890Z,34.91
2022-08-06T12:48:03.552Z,36.54
2022-08-06T12:49:01.635Z,36.25
2022-08-06T12:49:58.387Z,37.45
2022-08-06T12:50:57.905Z,37.63
2022-08-06T12:51:57.992Z,36.62
2022-08-06T12:52:58.447Z,35.50
2022-08-06T12:53:58.818Z,36.10
2022-08-06T12:54:57.936Z,35.21
2022-08-06T12:55:57.911Z,35.49
2022-08-06T12:56:58.011Z,33.60
2022-08-06T12:58:00.773Z,33.14
2022-08-06T12:59:00.188Z,35.14
2022-08-06T12:59:57.902Z,35.52
2022-08-06T13:00:57.954Z,35.01
2022-08-06T13:02:08.705Z,34.89
2022-08-06T13:02:59.089Z,34.56
2022-08-06T13:04:04.377Z,32.28
2022-08-06T13:04:59.101Z,32.94
2022-08-06T13:05:59.893Z,32.84
2022-08-06T13:06:57.735Z,33.14
2022-08-06T13:07:57.843Z,32.96
2022-08-06T13:08:58.085Z,32.66
2022-08-06T13:10:59.737Z,33.75
2022-08-06T13:11:57.889Z,32.75
2022-08-06T13:14:14.085Z,32.63
2022-08-06T13:14:15.430Z,33.94
2022-08-06T13:15:02.789Z,34.15
2022-08-06T13:15:59.688Z,33.87
2022-08-06T13:16:57.759Z,33.76
2022-08-06T13:18:00.790Z,33.87
2022-08-06T13:18:58.510Z,35.24
2022-08-06T13:19:57.626Z,33.36
2022-08-06T13:20:58.757Z,34.34
2022-08-06T13:21:58.404Z,34.73